sensor_id;sensor_type;location;lat;lon;timestamp;P1;durP1;ratioP1;P2;durP2;ratioP2
39082;SDS011;24834;44.444;26.098;2023-05-10T04:06:31;25.00;;;21.00;;
39082;SDS011;24834;44.444;26.098;2023-05-10T04:12:35;23.50;;;19.25;;
39082;SDS011;24834;44.444;26.098;2023-05-10T04:18:37;21.25;;;21.25;;
39082;SDS011;24834;44.444;26.098;2023-05-10T04:24:39;23.25;;;21.50;;
39082;SDS011;24834;44.444;26.098;2023-05-10T04:30:41;17.25;;;16.75;;
39082;SDS011;24834;44.444;26.098;2023-05-10T04:36:46;20.50;;;20.00;;
39082;SDS011;24834;44.444;26.098;2023-05-10T04:42:48;26.00;;;24.25;;
39082;SDS011;24834;44.444;26.098;2023-05-10T04:48:53;25.50;;;23.25;;
39082;SDS011;24834;44.444;26.098;2023-05-10T04:54:55;15.25;;;15.25;;
39082;SDS011;24834;44.444;26.098;2023-05-10T05:01:04;16.00;;;16.00;;
39082;SDS011;24834;44.444;26.098;2023-05-10T05:07:11;22.25;;;19.50;;
39082;SDS011;24834;44.444;26.098;2023-05-10T05:13:14;20.25;;;17.75;;
39082;SDS011;24834;44.444;26.098;2023-05-10T05:19:16;17.75;;;17.75;;
39082;SDS011;24834;44.444;26.098;2023-05-10T05:25:18;19.75;;;18.25;;
39082;SDS011;24834;44.444;26.098;2023-05-10T05:31:20;19.00;;;18.25;;
39082;SDS011;24834;44.444;26.098;2023-05-10T05:37:23;21.25;;;17.25;;
39082;SDS011;24834;44.444;26.098;2023-05-10T05:43:28;18.50;;;18.50;;
39082;SDS011;24834;44.444;26.098;2023-05-10T05:49:31;18.33;;;17.67;;
39082;SDS011;24834;44.444;26.098;2023-05-10T05:55:33;22.00;;;21.00;;
39082;SDS011;24834;44.444;26.098;2023-05-10T06:01:36;16.00;;;14.67;;
39082;SDS011;24834;44.444;26.098;2023-05-10T06:07:38;18.33;;;17.67;;
39082;SDS011;24834;44.444;26.098;2023-05-10T06:13:44;23.00;;;20.33;;
39082;SDS011;24834;44.444;26.098;2023-05-10T06:19:46;23.33;;;22.00;;
39082;SDS011;24834;44.444;26.098;2023-05-10T06:25:50;23.67;;;18.33;;
39082;SDS011;24834;44.444;26.098;2023-05-10T06:31:52;23.67;;;22.00;;
39082;SDS011;24834;44.444;26.098;2023-05-10T06:37:54;15.67;;;15.67;;
39082;SDS011;24834;44.444;26.098;2023-05-10T06:43:57;33.50;;;28.00;;
39082;SDS011;24834;44.444;26.098;2023-05-10T06:50:00;34.25;;;31.75;;
39082;SDS011;24834;44.444;26.098;2023-05-10T06:56:03;47.25;;;40.25;;
39082;SDS011;24834;44.444;26.098;2023-05-10T07:02:05;38.67;;;32.33;;
39082;SDS011;24834;44.444;26.098;2023-05-10T07:08:08;33.75;;;31.75;;
39082;SDS011;24834;44.444;26.098;2023-05-10T07:14:11;56.25;;;45.25;;
39082;SDS011;24834;44.444;26.098;2023-05-10T07:20:15;14.33;;;13.67;;
39082;SDS011;24834;44.444;26.098;2023-05-10T07:26:17;51.00;;;43.75;;
39082;SDS011;24834;44.444;26.098;2023-05-10T07:32:24;55.00;;;44.25;;
39082;SDS011;24834;44.444;26.098;2023-05-10T07:38:29;81.75;;;63.00;;
39082;SDS011;24834;44.444;26.098;2023-05-10T07:44:32;71.00;;;56.75;;
39082;SDS011;24834;44.444;26.098;2023-05-10T07:50:35;37.00;;;35.00;;
39082;SDS011;24834;44.444;26.098;2023-05-10T07:56:39;39.33;;;34.00;;
39082;SDS011;24834;44.444;26.098;2023-05-10T08:02:47;24.67;;;20.67;;
39082;SDS011;24834;44.444;26.098;2023-05-10T08:08:51;17.00;;;16.00;;
39082;SDS011;24834;44.444;26.098;2023-05-10T08:14:55;26.67;;;22.33;;
